Itaiopolis, Brazil
Current Conditions -  °F | °C
As of 6:00 AM on Monday 20 Oct 2014 (Local Time) from SBJV Reporting Station
Overcast Overcast  
Wind Chill: 68°   Ceiling: 3000
Heat Index: 68°   Visibility: 6mi
Dew Point: 68°   Wind: 1mph
Humidity: 100%   Direction: 190°S
Pressure: 29.97"   Gusts: NA
Location:  26.34°S, 49.91°W
Report Text: SBJV 200900Z 19001KT 9999 FEW013 OVC030 20/20 Q1015
Loading
Personal Weather Stations






























Interactive Weather Map
Tropical Storm Tracking
New forecast layout! Learn more

10-Day Weather Forecast

Advertisements
Track Severe Weather on mobile